If you wish to contribute or participate in the discussions about articles you are invited to join SKYbrary as a registered user

 Actions

Le Touquet-Côte d'Opale Airport

From SKYbrary Wiki

LFAT /
Revision as of 20:14, 16 February 2015 by Timo.Kouwenhoven (talk | contribs) (LF Airports CSV import)
(diff) ← Older revision | Latest revision (diff) | Newer revision → (diff)
Airport
ICAO: LFAT – IATA: LTQ
Summary
Name Le Touquet-Côte d'Opale Airport
Region Europe
Territory France FR.gif
Location , Nord-Pas-de-Calais
Serving Le Tourquet
Elevation 10.973 m
36 ft
36 ft10.973 m
Type medium airport
Coordinates 50° 31' 2.59" N, 1° 37' 14.11" E
Runways
Designator Length Width Surface ROPS
6/24 0 m0 ft
0 m0 ft
UNK /
14/32 1850 m6,069.554 ft
40 m131.234 ft
ASP /


METAR
Observation LFAT 180530Z AUTO 14004KT 120V190 9999 -RA BKN003 BKN008 OVC015 15/15 Q1003
Station Le Touquet
Date/Time 18 August 2019 05:30:00
Wind direction 140°
Wind speed 04 kts
Lowest cloud amount broken clouds
Temperature 15°C
Dew point 15°C
Humidity 100%
QNH 1003 hPa
Weather condition light rain